Time;durP1;ratioP1;P1;durP2;ratioP2;P2;SDS_P1;SDS_P2;PMS_P1;PMS_P2;Temp;Humidity;BMP_temperature;BMP_pressure;BME280_temperature;BME280_humidity;BME280_pressure;Samples;Min_cycle;Max_cycle;Signal;HPM_P1;HPM_P2
2022/04/23 00:01:06;;;;;;;7.77;4.23;;;11.80;99.90;;;;;;4859200;29;20239;-70
2022/04/23 00:03:34;;;;;;;6.13;3.90;;;11.90;99.90;;;;;;4859145;29;20230;-66
2022/04/23 00:06:00;;;;;;;6.63;3.90;;;12.00;99.90;;;;;;4860153;29;20219;-69
2022/04/23 00:08:27;;;;;;;7.00;3.70;;;12.00;99.90;;;;;;4860302;29;20243;-72
2022/04/23 00:10:56;;;;;;;6.77;3.83;;;12.10;99.90;;;;;;4859824;29;20231;-73
2022/04/23 00:13:23;;;;;;;6.17;3.50;;;12.20;99.90;;;;;;4860540;29;20222;-73
2022/04/23 00:15:50;;;;;;;7.00;4.40;;;12.20;99.90;;;;;;4859988;29;20573;-73
2022/04/23 00:18:18;;;;;;;8.27;4.10;;;12.30;99.90;;;;;;4860662;29;20212;-69
2022/04/23 00:20:46;;;;;;;6.53;3.80;;;12.40;99.90;;;;;;4860454;29;20263;-72
2022/04/23 00:23:13;;;;;;;7.50;3.67;;;12.50;99.90;;;;;;4860444;29;20685;-71
2022/04/23 00:25:41;;;;;;;7.63;4.40;;;12.50;99.90;;;;;;4860352;29;20222;-73
2022/04/23 00:28:10;;;;;;;6.73;4.03;;;12.30;99.90;;;;;;4860140;29;20798;-71
2022/04/23 00:30:37;;;;;;;7.13;3.73;;;12.30;99.90;;;;;;4860608;29;20235;-73
2022/04/23 00:33:04;;;;;;;7.53;4.30;;;12.30;99.90;;;;;;4859568;29;20226;-73
2022/04/23 00:35:31;;;;;;;7.43;4.20;;;12.30;99.90;;;;;;4860157;29;20295;-71
2022/04/23 00:37:58;;;;;;;7.10;3.83;;;12.10;99.90;;;;;;4859927;29;20275;-73
2022/04/23 00:40:25;;;;;;;6.87;3.90;;;12.20;99.90;;;;;;4860151;29;20647;-73
2022/04/23 00:42:54;;;;;;;9.20;4.23;;;12.20;99.90;;;;;;4859679;29;20208;-71
2022/04/23 00:45:23;;;;;;;6.03;4.40;;;12.20;99.90;;;;;;4860339;29;20216;-69
2022/04/23 00:47:50;;;;;;;6.97;4.17;;;12.10;99.90;;;;;;4860131;29;20239;-73
2022/04/23 00:50:21;;;;;;;6.63;4.10;;;12.00;99.90;;;;;;4860477;29;20243;-74
2022/04/23 00:52:48;;;;;;;8.90;4.30;;;12.00;99.90;;;;;;4863624;29;20660;-69
2022/04/23 00:55:15;;;;;;;6.43;4.20;;;12.10;99.90;;;;;;4863557;29;20212;-68
2022/04/23 00:57:42;;;;;;;8.27;4.40;;;12.10;99.90;;;;;;4863821;29;20227;-74
2022/04/23 01:00:10;;;;;;;8.53;4.03;;;12.20;99.90;;;;;;4863018;29;20238;-69
2022/04/23 01:02:38;;;;;;;8.60;4.30;;;12.20;99.90;;;;;;4863525;29;20230;-69
2022/04/23 01:05:09;;;;;;;5.83;3.63;;;12.10;99.90;;;;;;4863165;29;20218;-69
2022/04/23 01:07:38;;;;;;;7.63;4.70;;;11.90;99.90;;;;;;4862949;29;20330;-69
2022/04/23 01:10:07;;;;;;;7.27;4.23;;;11.80;99.90;;;;;;4862873;29;20291;-69
2022/04/23 01:12:35;;;;;;;7.47;3.97;;;11.80;99.90;;;;;;4863328;29;20212;-72
2022/04/23 01:15:04;;;;;;;7.37;4.60;;;11.60;99.90;;;;;;4862909;29;20570;-72
2022/04/23 01:17:31;;;;;;;7.67;4.30;;;11.70;99.90;;;;;;4862747;29;20212;-70
2022/04/23 01:20:07;;;;;;;8.63;4.27;;;11.60;99.90;;;;;;4861866;29;20714;-70
2022/04/23 01:22:34;;;;;;;7.43;4.33;;;11.60;99.90;;;;;;4863574;29;20222;-70
2022/04/23 01:25:04;;;;;;;6.50;3.97;;;11.60;99.90;;;;;;4862789;29;20214;-70
2022/04/23 01:27:31;;;;;;;7.50;4.07;;;11.70;99.90;;;;;;4862903;29;20244;-71
2022/04/23 01:29:58;;;;;;;5.90;3.83;;;11.70;99.90;;;;;;4862916;29;20718;-71
2022/04/23 01:32:25;;;;;;;7.50;4.33;;;11.70;99.90;;;;;;4862645;29;20220;-67
2022/04/23 01:34:52;;;;;;;7.40;4.73;;;11.70;99.90;;;;;;4862617;29;20223;-71
2022/04/23 01:37:20;;;;;;;7.17;4.10;;;11.60;99.90;;;;;;4861889;29;20219;-67
2022/04/23 01:39:48;;;;;;;7.33;4.30;;;11.60;99.90;;;;;;4862650;29;20235;-67
2022/04/23 01:42:17;;;;;;;8.87;4.03;;;11.60;99.90;;;;;;4862825;29;20211;-67
2022/04/23 01:44:45;;;;;;;9.53;4.47;;;11.60;99.90;;;;;;4862777;29;20215;-67
2022/04/23 01:47:12;;;;;;;8.93;5.23;;;11.60;99.90;;;;;;4862597;29;20216;-67
2022/04/23 01:49:39;;;;;;;7.60;4.13;;;11.60;99.90;;;;;;4862518;29;20243;-67
2022/04/23 01:52:06;;;;;;;7.40;4.43;;;11.70;99.90;;;;;;4862963;29;20218;-71
2022/04/23 01:54:35;;;;;;;7.47;4.27;;;11.70;99.90;;;;;;4862759;29;20674;-67
2022/04/23 01:57:02;;;;;;;6.70;3.87;;;11.60;99.90;;;;;;4862647;29;20208;-67
2022/04/23 01:59:30;;;;;;;7.73;4.77;;;11.60;99.90;;;;;;4861472;29;20280;-71
2022/04/23 02:01:56;;;;;;;7.07;4.23;;;11.70;99.90;;;;;;4861515;29;20219;-70
2022/04/23 02:04:23;;;;;;;6.73;4.00;;;11.80;99.90;;;;;;4861354;29;20215;-66
2022/04/23 02:06:50;;;;;;;6.83;4.20;;;11.70;99.90;;;;;;4862176;29;20215;-71
2022/04/23 02:09:17;;;;;;;7.10;4.53;;;11.70;99.90;;;;;;4861228;29;20254;-70
2022/04/23 02:11:46;;;;;;;6.77;4.40;;;11.70;99.90;;;;;;4861809;29;20216;-70
2022/04/23 02:14:13;;;;;;;7.63;4.10;;;11.70;99.90;;;;;;4861292;29;20212;-67
2022/04/23 02:16:40;;;;;;;9.90;4.70;;;11.70;99.90;;;;;;4861282;29;20211;-71
2022/04/23 02:19:07;;;;;;;9.33;4.10;;;11.80;99.90;;;;;;4860433;29;20711;-67
2022/04/23 02:21:34;;;;;;;8.30;4.50;;;11.70;99.90;;;;;;4861376;29;20223;-71
2022/04/23 02:24:03;;;;;;;7.90;4.47;;;11.80;99.90;;;;;;4861448;29;20215;-68
2022/04/23 02:26:30;;;;;;;8.80;4.40;;;11.80;99.90;;;;;;4861654;29;20717;-68
2022/04/23 02:28:58;;;;;;;8.40;4.87;;;11.90;99.90;;;;;;4861742;29;20246;-72
2022/04/23 02:31:25;;;;;;;7.10;4.37;;;11.80;99.90;;;;;;4861877;29;20271;-67
2022/04/23 02:33:52;;;;;;;8.97;4.63;;;11.70;99.90;;;;;;4860838;29;20216;-67
2022/04/23 02:36:20;;;;;;;7.93;4.70;;;11.70;99.90;;;;;;4861829;29;20223;-68
2022/04/23 02:38:50;;;;;;;8.17;4.20;;;11.60;99.90;;;;;;4860703;29;20543;-68
2022/04/23 02:41:17;;;;;;;8.00;4.53;;;11.70;99.90;;;;;;4861442;29;20238;-72
2022/04/23 02:43:45;;;;;;;7.20;4.87;;;11.70;99.90;;;;;;4861392;29;20215;-68
2022/04/23 02:46:15;;;;;;;7.47;4.60;;;11.80;99.90;;;;;;4861844;29;20318;-67
2022/04/23 02:48:42;;;;;;;8.77;4.93;;;11.80;99.90;;;;;;4861650;29;20242;-72
2022/04/23 02:51:09;;;;;;;10.43;4.83;;;11.70;99.90;;;;;;4861572;29;20239;-68
2022/04/23 02:53:35;;;;;;;8.03;5.17;;;11.70;99.90;;;;;;4860970;29;20332;-69
2022/04/23 02:56:05;;;;;;;8.00;4.73;;;11.70;99.90;;;;;;4861429;29;20208;-68
2022/04/23 02:58:32;;;;;;;8.10;5.13;;;11.60;99.90;;;;;;4860682;29;20259;-72
2022/04/23 03:00:59;;;;;;;6.53;4.43;;;11.60;99.90;;;;;;4861470;29;20242;-71
2022/04/23 03:03:28;;;;;;;8.47;4.90;;;11.70;99.90;;;;;;4861159;29;20216;-67
2022/04/23 03:05:55;;;;;;;8.57;4.93;;;11.70;99.90;;;;;;4861284;29;20216;-68
2022/04/23 03:08:24;;;;;;;8.43;5.00;;;11.70;99.90;;;;;;4860682;29;20592;-68
2022/04/23 03:10:51;;;;;;;11.17;5.57;;;11.80;99.90;;;;;;4860572;29;20710;-67
2022/04/23 03:13:19;;;;;;;9.57;4.60;;;11.80;99.90;;;;;;4860759;29;20220;-67
2022/04/23 03:15:46;;;;;;;8.70;4.80;;;11.70;99.90;;;;;;4861272;29;20216;-68
2022/04/23 03:18:14;;;;;;;10.03;4.90;;;11.80;99.90;;;;;;4861217;29;20250;-69
2022/04/23 03:20:43;;;;;;;8.47;5.20;;;11.70;99.90;;;;;;4860758;29;20238;-67
2022/04/23 03:23:12;;;;;;;10.83;5.17;;;11.60;99.90;;;;;;4860381;29;20215;-68
2022/04/23 03:25:40;;;;;;;9.53;5.37;;;11.70;99.90;;;;;;4860800;29;20603;-67
2022/04/23 03:28:07;;;;;;;9.83;5.07;;;11.70;99.90;;;;;;4860578;29;20236;-68
2022/04/23 03:30:34;;;;;;;9.03;5.47;;;11.60;99.90;;;;;;4860582;29;20267;-68
2022/04/23 03:33:01;;;;;;;9.23;5.27;;;11.50;99.90;;;;;;4860872;29;20275;-67
2022/04/23 03:35:28;;;;;;;9.83;5.57;;;11.50;99.90;;;;;;4860672;29;20222;-69
2022/04/23 03:37:56;;;;;;;7.83;4.93;;;11.40;99.90;;;;;;4860205;29;20208;-71
2022/04/23 03:40:23;;;;;;;9.47;5.33;;;11.30;99.90;;;;;;4860868;29;20301;-71
2022/04/23 03:42:50;;;;;;;8.87;5.20;;;11.30;99.90;;;;;;4860773;29;20222;-71
2022/04/23 03:45:18;;;;;;;7.93;5.07;;;11.20;99.90;;;;;;4860744;29;20222;-72
2022/04/23 03:47:46;;;;;;;10.70;5.37;;;11.10;99.90;;;;;;4860699;29;20259;-71
2022/04/23 03:50:14;;;;;;;7.30;5.07;;;11.10;99.90;;;;;;4860467;29;20228;-72
2022/04/23 03:52:41;;;;;;;8.70;5.30;;;11.10;99.90;;;;;;4860819;29;20215;-69
2022/04/23 03:55:11;;;;;;;9.07;5.53;;;11.10;99.90;;;;;;4860899;29;20234;-68
2022/04/23 03:57:45;;;;;;;9.47;5.27;;;11.10;99.90;;;;;;4860462;29;20268;-68
2022/04/23 04:00:14;;;;;;;9.07;5.40;;;11.10;99.90;;;;;;4860010;29;20235;-71
2022/04/23 04:02:41;;;;;;;8.20;5.33;;;11.10;99.90;;;;;;4860056;29;20777;-72
2022/04/23 04:05:10;;;;;;;8.20;5.10;;;11.00;99.90;;;;;;4859300;29;20212;-70
2022/04/23 04:07:40;;;;;;;8.93;5.23;;;11.00;99.90;;;;;;4860181;29;20566;-67
2022/04/23 04:10:09;;;;;;;9.30;5.80;;;11.00;99.90;;;;;;4859909;29;20240;-69
2022/04/23 04:12:37;;;;;;;10.37;5.47;;;10.90;99.90;;;;;;4860185;29;20216;-67
2022/04/23 04:15:05;;;;;;;8.77;5.40;;;10.80;99.90;;;;;;4859838;29;20212;-69
2022/04/23 04:17:32;;;;;;;8.77;5.43;;;10.90;99.90;;;;;;4860507;29;20212;-72
2022/04/23 04:19:59;;;;;;;8.20;5.57;;;10.90;99.90;;;;;;4859658;29;20236;-70
2022/04/23 04:22:27;;;;;;;7.80;5.00;;;10.90;99.90;;;;;;4860444;29;20634;-68
2022/04/23 04:24:53;;;;;;;10.23;5.53;;;10.90;99.90;;;;;;4860614;29;20329;-70
2022/04/23 04:27:22;;;;;;;8.83;5.60;;;10.90;99.90;;;;;;4863121;29;20235;-72
2022/04/23 04:29:48;;;;;;;11.23;6.07;;;10.80;99.90;;;;;;4863145;29;20250;-71
2022/04/23 04:32:15;;;;;;;9.13;5.13;;;10.90;99.90;;;;;;4863407;29;20211;-70
2022/04/23 04:34:42;;;;;;;9.90;6.00;;;10.90;99.90;;;;;;4863320;29;20222;-72
2022/04/23 04:37:11;;;;;;;9.33;5.63;;;10.80;99.90;;;;;;4863700;29;20215;-70
2022/04/23 04:39:38;;;;;;;9.00;5.90;;;10.80;99.90;;;;;;4862716;29;20236;-70
2022/04/23 04:42:06;;;;;;;9.80;6.37;;;10.80;99.90;;;;;;4861679;29;20215;-68
2022/04/23 04:44:35;;;;;;;8.87;5.60;;;10.90;99.90;;;;;;4862552;29;20675;-68
2022/04/23 04:47:02;;;;;;;11.13;5.20;;;10.90;99.90;;;;;;4862687;29;20302;-68
2022/04/23 04:49:29;;;;;;;11.77;6.47;;;10.80;99.90;;;;;;4862440;29;20254;-71
2022/04/23 04:51:56;;;;;;;10.97;5.70;;;10.80;99.90;;;;;;4863179;29;20212;-67
2022/04/23 04:54:23;;;;;;;8.27;5.27;;;10.80;99.90;;;;;;4863680;29;20355;-67
2022/04/23 04:56:50;;;;;;;9.03;5.53;;;10.90;99.90;;;;;;4863407;29;20223;-70
2022/04/23 04:59:17;;;;;;;9.83;5.37;;;10.90;99.90;;;;;;4863486;29;20236;-68
2022/04/23 05:01:45;;;;;;;9.67;5.93;;;11.00;99.90;;;;;;4863136;29;20215;-67
2022/04/23 05:04:12;;;;;;;11.83;6.43;;;11.00;99.90;;;;;;4863569;29;20216;-73
2022/04/23 05:06:39;;;;;;;10.53;5.67;;;10.90;99.90;;;;;;4863421;29;20216;-70
2022/04/23 05:09:06;;;;;;;10.87;6.10;;;10.90;99.90;;;;;;4863310;29;20240;-74
2022/04/23 05:11:33;;;;;;;10.20;5.73;;;10.80;99.90;;;;;;4862327;29;20218;-67
2022/04/23 05:14:00;;;;;;;9.30;5.77;;;10.80;99.90;;;;;;4862591;29;20688;-73
2022/04/23 05:16:26;;;;;;;9.83;5.80;;;10.80;99.90;;;;;;4863016;29;20208;-70
2022/04/23 05:18:54;;;;;;;10.80;6.33;;;10.80;99.90;;;;;;4862453;29;20219;-70
2022/04/23 05:21:21;;;;;;;10.40;6.50;;;10.80;99.90;;;;;;4863343;29;20212;-72
2022/04/23 05:23:48;;;;;;;9.70;5.70;;;10.90;99.90;;;;;;4862494;29;20208;-69
2022/04/23 05:26:15;;;;;;;10.50;6.33;;;10.80;99.90;;;;;;4862239;29;20218;-73
2022/04/23 05:28:42;;;;;;;11.27;6.07;;;10.90;99.90;;;;;;4862661;29;20239;-73
2022/04/23 05:31:09;;;;;;;9.67;5.80;;;10.90;99.90;;;;;;4862939;29;20232;-70
2022/04/23 05:33:36;;;;;;;9.97;5.93;;;10.90;99.90;;;;;;4863021;29;20208;-67
2022/04/23 05:36:06;;;;;;;12.13;5.87;;;11.00;99.90;;;;;;4861915;29;20226;-70
2022/04/23 05:38:34;;;;;;;11.43;6.23;;;11.20;99.90;;;;;;4862830;29;20310;-72
2022/04/23 05:41:01;;;;;;;9.60;5.87;;;11.30;99.90;;;;;;4862964;29;20236;-72
2022/04/23 05:43:28;;;;;;;11.23;6.57;;;11.60;99.90;;;;;;4862679;29;20246;-71
2022/04/23 05:45:57;;;;;;;8.87;5.33;;;11.70;99.90;;;;;;4862279;29;20207;-72
2022/04/23 05:48:24;;;;;;;10.00;6.00;;;11.70;99.90;;;;;;4861472;29;20307;-71
2022/04/23 05:50:51;;;;;;;11.43;6.37;;;12.20;99.90;;;;;;4862181;29;20601;-72
2022/04/23 05:53:19;;;;;;;10.20;5.30;;;12.20;99.90;;;;;;4861625;29;20212;-72
2022/04/23 05:55:45;;;;;;;8.13;5.23;;;12.30;99.90;;;;;;4862657;29;20226;-68
2022/04/23 05:58:12;;;;;;;12.43;6.20;;;12.20;99.90;;;;;;4861754;29;20272;-68
2022/04/23 06:00:39;;;;;;;10.43;5.47;;;11.80;99.90;;;;;;4861963;29;20598;-68
2022/04/23 06:03:06;;;;;;;10.03;5.87;;;11.60;99.90;;;;;;4861632;29;20216;-68
2022/04/23 06:05:33;;;;;;;8.27;5.23;;;11.80;99.90;;;;;;4861799;29;20295;-68
2022/04/23 06:08:00;;;;;;;11.43;6.73;;;12.10;99.90;;;;;;4862501;29;20212;-68
2022/04/23 06:10:28;;;;;;;9.67;5.80;;;12.40;99.90;;;;;;4861794;29;20251;-72
2022/04/23 06:12:55;;;;;;;9.30;5.70;;;12.40;99.90;;;;;;4861820;29;20215;-72
2022/04/23 06:15:21;;;;;;;10.53;6.07;;;12.30;99.90;;;;;;4861369;29;20306;-72
2022/04/23 06:17:48;;;;;;;9.87;5.70;;;12.30;99.90;;;;;;4861700;29;20212;-72
2022/04/23 06:20:15;;;;;;;10.43;5.80;;;12.30;99.90;;;;;;4860527;29;20323;-71
2022/04/23 06:22:42;;;;;;;8.77;5.70;;;12.50;99.90;;;;;;4861752;29;20218;-73
2022/04/23 06:25:09;;;;;;;9.47;5.97;;;12.80;99.90;;;;;;4861123;29;20219;-69
2022/04/23 06:27:38;;;;;;;9.80;5.40;;;13.10;99.90;;;;;;4862172;29;20212;-68
2022/04/23 06:30:06;;;;;;;8.20;5.53;;;13.50;99.90;;;;;;4861637;29;20244;-69
2022/04/23 06:32:33;;;;;;;8.57;5.57;;;14.00;99.90;;;;;;4861940;29;20216;-68
2022/04/23 06:35:00;;;;;;;10.20;5.60;;;14.40;99.90;;;;;;4860358;29;20212;-68
2022/04/23 06:37:26;;;;;;;8.07;5.00;;;14.50;99.90;;;;;;4861093;29;20219;-68
2022/04/23 06:39:53;;;;;;;9.63;4.90;;;14.80;99.90;;;;;;4860130;29;20228;-69
2022/04/23 06:42:20;;;;;;;7.70;5.27;;;15.00;99.90;;;;;;4861043;29;20212;-69
2022/04/23 06:44:49;;;;;;;9.13;5.37;;;15.40;99.90;;;;;;4861250;29;20219;-72
2022/04/23 06:47:16;;;;;;;8.63;4.80;;;15.30;99.90;;;;;;4861369;29;20216;-69
2022/04/23 06:49:43;;;;;;;7.60;5.10;;;14.90;99.90;;;;;;4860093;29;20705;-68
2022/04/23 06:52:09;;;;;;;8.53;5.20;;;15.10;99.90;;;;;;4861635;29;20216;-72
2022/04/23 06:54:36;;;;;;;8.33;4.97;;;15.00;99.90;;;;;;4861251;29;20212;-71
2022/04/23 06:57:03;;;;;;;8.30;5.00;;;15.10;99.90;;;;;;4860476;29;20208;-70
2022/04/23 06:59:30;;;;;;;8.73;5.10;;;15.50;99.90;;;;;;4861101;29;20716;-68
2022/04/23 07:02:02;;;;;;;8.97;5.57;;;15.80;99.90;;;;;;4861135;29;20218;-67
2022/04/23 07:04:29;;;;;;;9.30;5.20;;;16.10;99.90;;;;;;4860820;29;20223;-67
2022/04/23 07:06:55;;;;;;;8.47;5.57;;;16.30;99.90;;;;;;4889064;23;20231;-73
2022/04/23 07:09:22;;;;;;;10.40;5.53;;;15.70;99.90;;;;;;4878977;29;20231;-71
2022/04/23 07:11:49;;;;;;;9.80;6.00;;;15.70;99.90;;;;;;4878670;29;20204;-73
2022/04/23 07:14:16;;;;;;;7.33;4.97;;;15.80;99.90;;;;;;4878870;29;20657;-73
2022/04/23 07:16:43;;;;;;;9.33;5.33;;;16.20;99.90;;;;;;4878623;29;20293;-72
2022/04/23 07:19:11;;;;;;;8.03;5.50;;;16.10;99.90;;;;;;4877413;29;20226;-70
2022/04/23 07:21:38;;;;;;;8.40;4.60;;;16.40;99.90;;;;;;4879413;29;20672;-71
2022/04/23 07:24:08;;;;;;;7.30;4.93;;;16.30;99.90;;;;;;4879432;29;20215;-70
2022/04/23 07:26:37;;;;;;;7.87;5.03;;;16.50;99.90;;;;;;4879206;29;20211;-70
2022/04/23 07:29:06;;;;;;;8.67;4.80;;;16.50;99.90;;;;;;4877543;29;20255;-72
2022/04/23 07:31:33;;;;;;;9.73;5.10;;;16.00;99.90;;;;;;4877979;29;20580;-71
2022/04/23 07:39:30;;;;;;;8.30;4.70;;;15.40;99.90;;;;;;4877726;29;20237;-71
2022/04/23 07:41:58;;;;;;;8.70;5.53;;;15.30;99.90;;;;;;4877912;29;20322;-71
2022/04/23 07:44:25;;;;;;;9.17;4.90;;;15.60;99.90;;;;;;4878439;29;20242;-71
2022/04/23 07:46:52;;;;;;;9.23;5.20;;;16.10;99.90;;;;;;4879231;29;20218;-72
2022/04/23 07:49:19;;;;;;;8.43;4.83;;;16.20;99.90;;;;;;4878006;29;20703;-70
2022/04/23 07:51:48;;;;;;;9.67;5.77;;;16.00;99.90;;;;;;4877821;29;20375;-71
2022/04/23 07:54:16;;;;;;;6.77;4.60;;;15.70;99.90;;;;;;4878489;29;20219;-70
2022/04/23 07:56:44;;;;;;;8.10;5.07;;;15.50;99.90;;;;;;4877880;29;20215;-72
2022/04/23 07:59:11;;;;;;;9.17;5.13;;;15.50;99.90;;;;;;4878289;29;20250;-71
2022/04/23 08:01:37;;;;;;;8.13;5.03;;;16.00;99.90;;;;;;4878426;29;20211;-71
2022/04/23 08:04:04;;;;;;;8.83;5.03;;;16.60;99.90;;;;;;4878012;29;20215;-71
2022/04/23 08:06:32;;;;;;;7.60;4.63;;;16.70;99.90;;;;;;4877636;29;20230;-72
2022/04/23 08:09:00;;;;;;;7.20;4.63;;;16.80;99.90;;;;;;4878213;29;20211;-71
2022/04/23 08:11:27;;;;;;;9.13;5.43;;;16.60;99.90;;;;;;4877127;29;20207;-72
2022/04/23 08:13:54;;;;;;;8.57;5.50;;;16.80;99.90;;;;;;4877915;29;20215;-73
2022/04/23 08:16:21;;;;;;;8.50;5.33;;;16.80;99.90;;;;;;4877559;29;20700;-71
2022/04/23 08:18:47;;;;;;;8.73;5.37;;;16.80;99.90;;;;;;4878969;29;20215;-72
2022/04/23 08:21:15;;;;;;;7.63;5.37;;;16.90;99.90;;;;;;4878924;29;20253;-72
2022/04/23 08:23:42;;;;;;;7.30;5.13;;;16.90;99.90;;;;;;4879189;29;20215;-72
2022/04/23 08:26:10;;;;;;;8.40;4.93;;;16.70;99.90;;;;;;4879102;29;20271;-72
2022/04/23 08:31:22;;;;;;;7.57;5.07;;;17.10;99.90;;;;;;4878722;29;20599;-72
2022/04/23 08:34:01;;;;;;;7.83;4.90;;;17.20;99.90;;;;;;4878684;29;20677;-71
2022/04/23 08:36:35;;;;;;;7.67;5.20;;;17.50;99.90;;;;;;4878934;29;20211;-71
2022/04/23 08:39:04;;;;;;;9.40;5.50;;;17.60;99.90;;;;;;4878848;29;20239;-72
2022/04/23 08:41:33;;;;;;;9.25;5.22;;;17.80;99.90;;;;;;4878687;29;20211;-71
2022/04/23 08:44:06;;;;;;;8.77;5.40;;;17.80;99.80;;;;;;4878704;29;20215;-72
2022/04/23 08:46:34;;;;;;;8.53;5.70;;;17.80;99.90;;;;;;4878979;29;20573;-71
2022/04/23 08:49:10;;;;;;;10.23;5.40;;;17.50;99.90;;;;;;4878534;29;20673;-72
2022/04/23 08:51:39;;;;;;;9.23;5.60;;;17.60;99.90;;;;;;4878734;29;20222;-72
2022/04/23 08:54:08;;;;;;;7.93;5.20;;;17.70;99.90;;;;;;4878922;29;20257;-72
2022/04/23 08:56:37;;;;;;;6.80;4.63;;;17.50;99.90;;;;;;4878628;29;20215;-72
2022/04/23 08:59:06;;;;;;;7.77;5.37;;;17.60;99.90;;;;;;4878605;29;20213;-72
2022/04/23 09:01:33;;;;;;;7.87;5.40;;;17.60;99.90;;;;;;4878612;29;20677;-72
2022/04/23 09:04:01;;;;;;;8.90;5.47;;;17.50;99.90;;;;;;4878649;29;20211;-72
2022/04/23 09:06:39;;;;;;;11.40;5.63;;;17.50;99.90;;;;;;4878634;29;20724;-73
2022/04/23 09:09:14;;;;;;;10.13;5.53;;;17.30;99.90;;;;;;4878806;29;20215;-73
2022/04/23 09:11:44;;;;;;;9.63;5.30;;;17.40;99.90;;;;;;4879216;29;20210;-72
2022/04/23 09:14:23;;;;;;;8.50;5.43;;;17.70;99.90;;;;;;4881583;29;20272;-72
2022/04/23 09:25:07;;;;;;;8.70;5.57;;;17.40;99.90;;;;;;4882502;29;20215;-73
2022/04/23 09:27:35;;;;;;;8.87;5.53;;;17.90;99.90;;;;;;4882122;29;20221;-72
2022/04/23 09:30:04;;;;;;;8.20;5.00;;;17.60;99.90;;;;;;4882435;29;20734;-71
2022/04/23 09:32:31;;;;;;;9.47;5.67;;;17.70;99.90;;;;;;4882043;29;20665;-72
2022/04/23 09:35:05;;;;;;;7.70;4.93;;;17.80;99.90;;;;;;4882467;29;20238;-73
2022/04/23 09:38:11;;;;;;;7.27;4.83;;;17.50;99.90;;;;;;4881525;29;20675;-72
2022/04/23 09:40:21;;;;;;;7.87;5.40;;;17.40;99.90;;;;;;4881287;29;20306;-71
2022/04/23 09:42:59;;;;;;;8.70;5.37;;;17.50;99.90;;;;;;4881271;29;20287;-72
2022/04/23 09:45:28;;;;;;;9.33;5.07;;;17.20;99.90;;;;;;4881327;29;20211;-72
2022/04/23 09:47:56;;;;;;;9.23;5.33;;;17.00;99.90;;;;;;4881530;29;20214;-72
2022/04/23 09:50:23;;;;;;;10.97;5.40;;;16.90;99.90;;;;;;4881003;29;20247;-71
2022/04/23 09:52:50;;;;;;;7.93;5.23;;;16.80;99.90;;;;;;4881321;29;20688;-71
2022/04/23 09:55:19;;;;;;;7.30;4.83;;;16.90;99.90;;;;;;4881399;29;20220;-72
2022/04/23 09:57:48;;;;;;;6.73;4.50;;;17.00;99.90;;;;;;4881210;29;20207;-72
2022/04/23 10:00:17;;;;;;;7.47;4.73;;;16.80;99.90;;;;;;4881068;29;20227;-72
2022/04/23 10:02:46;;;;;;;10.37;5.47;;;16.90;99.90;;;;;;4881157;29;20222;-72
2022/04/23 10:05:15;;;;;;;7.47;4.63;;;16.70;99.90;;;;;;4880540;29;20215;-71
2022/04/23 10:07:45;;;;;;;7.83;4.87;;;16.70;99.90;;;;;;4880635;29;20219;-72
2022/04/23 10:10:13;;;;;;;9.37;5.50;;;16.60;99.90;;;;;;4880399;29;20239;-71
2022/04/23 10:12:45;;;;;;;7.03;4.90;;;16.70;99.90;;;;;;4880738;29;20211;-71
2022/04/23 10:15:14;;;;;;;9.07;5.40;;;16.40;99.90;;;;;;4880862;29;20637;-71
2022/04/23 10:17:43;;;;;;;9.67;5.07;;;16.50;99.90;;;;;;4880567;29;20207;-71
2022/04/23 10:20:13;;;;;;;8.40;5.20;;;16.50;99.90;;;;;;4880915;29;20582;-71
2022/04/23 10:22:53;;;;;;;7.77;5.10;;;16.60;99.90;;;;;;4880807;29;20223;-71
2022/04/23 10:25:27;;;;;;;7.80;4.97;;;16.80;99.90;;;;;;4880891;29;20211;-72
2022/04/23 10:27:57;;;;;;;8.83;5.07;;;17.10;99.90;;;;;;4880659;29;20241;-71
2022/04/23 10:30:27;;;;;;;7.47;4.83;;;17.40;99.90;;;;;;4880405;29;20239;-71
2022/04/23 10:32:55;;;;;;;8.50;5.47;;;17.80;99.90;;;;;;4880715;29;20211;-72
2022/04/23 10:35:35;;;;;;;8.83;5.23;;;18.10;99.90;;;;;;4880500;29;20211;-71
2022/04/23 10:38:20;;;;;;;8.03;4.53;;;18.20;99.90;;;;;;4880417;29;20243;-71
2022/04/23 10:40:47;;;;;;;8.80;5.00;;;18.40;99.90;;;;;;4879405;29;20257;-72
2022/04/23 10:43:19;;;;;;;8.23;5.00;;;18.30;99.90;;;;;;4880287;29;20298;-72
2022/04/23 10:45:48;;;;;;;7.38;4.82;;;18.00;99.90;;;;;;4879149;29;20305;-71
2022/04/23 10:48:32;;;;;;;7.63;4.53;;;17.90;99.90;;;;;;4879030;29;20692;-71
2022/04/23 10:51:08;;;;;;;6.73;4.47;;;17.80;99.90;;;;;;4879580;29;20592;-71
2022/04/23 10:53:51;;;;;;;6.63;4.27;;;17.90;99.90;;;;;;4879406;29;20691;-71
2022/04/23 10:56:20;;;;;;;6.90;4.50;;;18.00;99.90;;;;;;4879206;29;20230;-71
2022/04/23 10:58:48;;;;;;;8.60;4.63;;;18.30;99.90;;;;;;4878913;29;20211;-70
2022/04/23 11:01:26;;;;;;;6.53;4.30;;;18.50;99.90;;;;;;4876268;29;20309;-71
2022/04/23 11:04:19;;;;;;;9.50;5.50;;;18.50;99.90;;;;;;4879023;29;20616;-71
2022/04/23 11:12:32;;;;;;;7.00;4.67;;;18.50;99.90;;;;;;4879221;29;20254;-72
2022/04/23 11:15:00;;;;;;;6.27;4.60;;;18.30;99.90;;;;;;4879045;29;20290;-71
2022/04/23 11:17:50;;;;;;;9.37;5.13;;;18.10;99.90;;;;;;4878425;29;20242;-71
2022/04/23 11:20:28;;;;;;;7.13;4.57;;;18.00;99.90;;;;;;4878257;29;20231;-72
2022/04/23 11:22:56;;;;;;;8.77;4.73;;;18.00;99.90;;;;;;4878359;29;20214;-72
2022/04/23 11:25:23;;;;;;;7.47;4.60;;;17.80;99.90;;;;;;4879831;29;20215;-71
2022/04/23 11:27:50;;;;;;;7.60;4.73;;;17.90;99.90;;;;;;4879524;29;20684;-72
2022/04/23 11:30:30;;;;;;;9.57;4.87;;;17.70;99.90;;;;;;4879174;29;20238;-72
2022/04/23 11:33:10;;;;;;;8.13;4.73;;;17.60;99.90;;;;;;4877939;29;20237;-71
2022/04/23 11:35:39;;;;;;;7.20;4.70;;;18.00;99.90;;;;;;4877965;29;20210;-72
2022/04/23 11:38:06;;;;;;;6.57;4.30;;;18.20;99.90;;;;;;4879475;29;20283;-72
2022/04/23 11:40:35;;;;;;;6.77;4.23;;;18.60;99.90;;;;;;4879225;29;20243;-72
2022/04/23 11:43:03;;;;;;;8.87;4.87;;;18.70;99.90;;;;;;4879800;29;20233;-72
2022/04/23 11:45:29;;;;;;;8.57;5.03;;;18.70;99.90;;;;;;4879366;29;20214;-71
2022/04/23 11:47:56;;;;;;;6.27;4.40;;;18.80;99.90;;;;;;4879663;29;20211;-72
2022/04/23 11:50:23;;;;;;;8.87;4.30;;;18.80;99.90;;;;;;4879234;29;20245;-71
2022/04/23 11:53:03;;;;;;;8.17;4.30;;;18.70;99.90;;;;;;4877947;29;20211;-73
2022/04/23 11:55:30;;;;;;;7.70;4.57;;;18.90;99.90;;;;;;4869609;29;20211;-73
2022/04/23 11:57:58;;;;;;;5.28;3.92;;;18.70;99.90;;;;;;4860507;29;20268;-72
2022/04/23 12:00:25;;;;;;;6.83;4.60;;;18.70;99.90;;;;;;4877631;29;20372;-72
2022/04/23 12:02:53;;;;;;;6.13;3.95;;;18.70;99.90;;;;;;4870232;29;20219;-72
2022/04/23 12:05:24;;;;;;;6.30;3.83;;;18.60;99.90;;;;;;4862095;29;20219;-71
2022/04/23 12:07:51;;;;;;;6.90;4.17;;;18.50;99.90;;;;;;4873006;29;20204;-73
2022/04/23 12:10:25;;;;;;;7.17;4.27;;;18.70;99.90;;;;;;4864849;29;20227;-72
2022/04/23 12:12:52;;;;;;;7.35;4.60;;;18.80;99.90;;;;;;4875940;29;20304;-73
2022/04/23 12:15:21;;;;;;;7.50;4.35;;;18.80;99.90;;;;;;4877145;29;20664;-72
2022/04/23 12:17:49;;;;;;;5.80;4.25;;;19.10;99.90;;;;;;4878400;29;20211;-72
2022/04/23 12:20:17;;;;;;;6.80;3.65;;;19.30;99.90;;;;;;4877182;29;20235;-73
2022/04/23 12:22:56;;;;;;;5.30;3.70;;;19.60;99.90;;;;;;4867904;29;20226;-73
2022/04/23 12:25:25;;;;;;;6.57;4.43;;;19.70;99.90;;;;;;4866067;29;20211;-73
2022/04/23 12:27:53;;;;;;;6.20;4.00;;;19.90;99.80;;;;;;4877816;29;20662;-73
2022/04/23 12:41:27;;;;;;;5.43;3.75;;;20.00;99.10;;;;;;4867070;29;20230;-72
2022/04/23 12:43:54;;;;;;;9.07;3.35;;;19.90;99.50;;;;;;4881535;29;20665;-73
2022/04/23 12:46:21;;;;;;;4.82;3.55;;;19.90;99.10;;;;;;4873397;29;20199;-73
2022/04/23 12:49:03;;;;;;;4.95;3.55;;;19.80;99.00;;;;;;4883510;29;20213;-73
2022/04/23 12:51:30;;;;;;;4.80;3.30;;;20.20;99.00;;;;;;4879543;29;20266;-73
2022/04/23 12:53:57;;;;;;;4.72;3.25;;;20.20;99.00;;;;;;4872888;29;20639;-73
2022/04/23 12:56:35;;;;;;;5.20;3.42;;;20.10;98.40;;;;;;4879548;29;20211;-72
2022/04/23 12:59:04;;;;;;;3.72;3.10;;;19.90;99.00;;;;;;4878800;29;20221;-73
2022/04/23 13:01:30;;;;;;;4.90;3.38;;;19.90;98.90;;;;;;4878045;29;20218;-72
2022/04/23 13:03:57;;;;;;;4.97;3.70;;;19.90;99.10;;;;;;4878246;29;20657;-73
2022/04/23 13:09:09;;;;;;;3.90;3.22;;;19.80;98.80;;;;;;4910128;23;20361;-69
2022/04/23 13:11:37;;;;;;;5.50;3.33;;;19.70;98.50;;;;;;4917776;29;20345;-69
2022/04/23 13:14:05;;;;;;;4.15;2.92;;;19.50;98.70;;;;;;4918493;29;20210;-68
2022/04/23 13:16:34;;;;;;;3.35;2.72;;;19.70;98.90;;;;;;4918450;29;20206;-69
2022/04/23 13:19:02;;;;;;;5.63;3.40;;;19.90;98.60;;;;;;4917233;29;20206;-72
2022/04/23 13:21:30;;;;;;;4.32;3.25;;;19.90;98.30;;;;;;4918427;29;20213;-73
2022/04/23 13:23:57;;;;;;;5.55;3.13;;;19.90;97.90;;;;;;4914601;29;20270;-73
2022/04/23 13:26:27;;;;;;;4.93;2.97;;;19.70;98.30;;;;;;4913545;29;20667;-72
2022/04/23 13:28:56;;;;;;;4.20;3.20;;;19.70;98.20;;;;;;4917939;29;20261;-71